createdAt,value
2019-03-30T00:00:44.349Z,6.00
2019-03-30T00:03:14.669Z,6.00
2019-03-30T00:05:45.019Z,5.90
2019-03-30T00:08:15.322Z,6.00
2019-03-30T00:10:45.628Z,5.90
2019-03-30T00:13:16.000Z,5.90
2019-03-30T00:15:48.302Z,5.80
2019-03-30T00:18:19.927Z,5.80
2019-03-30T00:20:50.259Z,5.70
2019-03-30T00:23:27.268Z,5.70
2019-03-30T00:25:57.610Z,5.70
2019-03-30T00:28:31.500Z,5.60
2019-03-30T00:31:01.862Z,5.60
2019-03-30T00:33:35.520Z,5.60
2019-03-30T00:36:05.160Z,5.60
2019-03-30T00:38:50.801Z,5.60
2019-03-30T00:41:21.961Z,5.60
2019-03-30T00:43:52.195Z,5.60
2019-03-30T00:46:22.647Z,5.50
2019-03-30T00:48:53.001Z,5.50
2019-03-30T00:51:23.263Z,5.50
2019-03-30T00:53:54.991Z,5.50
2019-03-30T00:56:25.460Z,5.50
2019-03-30T00:58:56.107Z,5.50
2019-03-30T01:01:29.099Z,5.40
2019-03-30T01:04:03.906Z,5.40
2019-03-30T01:06:34.220Z,5.40
2019-03-30T01:09:06.212Z,5.40
2019-03-30T01:11:36.674Z,5.40
2019-03-30T01:14:07.137Z,5.40
2019-03-30T01:16:43.688Z,5.40
2019-03-30T01:19:14.060Z,5.40
2019-03-30T01:21:44.999Z,5.30
2019-03-30T01:24:15.315Z,5.30
2019-03-30T01:27:02.432Z,5.20
2019-03-30T01:29:29.330Z,5.20
2019-03-30T01:34:57.855Z,5.10
2019-03-30T01:37:29.163Z,5.10
2019-03-30T01:39:59.435Z,5.00
2019-03-30T01:42:29.760Z,5.00
2019-03-30T01:45:00.047Z,5.00
2019-03-30T01:47:30.428Z,5.00
2019-03-30T01:50:16.183Z,5.00
2019-03-30T01:52:46.332Z,5.00
2019-03-30T01:55:16.713Z,5.00
2019-03-30T01:57:48.578Z,5.00
2019-03-30T02:00:22.938Z,5.00
2019-03-30T02:02:53.299Z,4.90
2019-03-30T02:05:23.630Z,4.90
2019-03-30T02:07:53.950Z,4.80
2019-03-30T02:10:35.504Z,4.90
2019-03-30T02:13:11.936Z,4.80
2019-03-30T02:18:32.887Z,4.80
2019-03-30T02:21:03.318Z,4.70
2019-03-30T02:23:44.588Z,4.70
2019-03-30T02:26:14.892Z,4.70
2019-03-30T02:28:51.076Z,4.70
2019-03-30T02:31:27.725Z,4.60
2019-03-30T02:34:09.822Z,4.60
2019-03-30T02:36:48.983Z,4.60
2019-03-30T02:39:19.181Z,4.60
2019-03-30T02:41:53.009Z,4.60
2019-03-30T02:44:29.241Z,4.60
2019-03-30T02:47:13.043Z,4.50
2019-03-30T02:49:43.366Z,4.50
2019-03-30T02:52:19.509Z,4.40
2019-03-30T02:54:51.723Z,4.40
2019-03-30T02:57:22.102Z,4.40
2019-03-30T02:59:52.400Z,4.40
2019-03-30T03:02:23.941Z,4.30
2019-03-30T03:04:54.253Z,4.30
2019-03-30T03:07:31.527Z,4.30
2019-03-30T03:10:01.837Z,4.30
2019-03-30T03:12:34.671Z,4.20
2019-03-30T03:15:06.687Z,4.20
2019-03-30T03:17:37.087Z,4.10
2019-03-30T03:20:13.177Z,4.10
2019-03-30T03:22:48.095Z,4.20
2019-03-30T03:25:18.274Z,4.20
2019-03-30T03:27:48.534Z,4.10
2019-03-30T03:30:19.126Z,4.10
2019-03-30T03:32:52.421Z,4.10
2019-03-30T03:35:22.698Z,4.10
2019-03-30T03:38:12.247Z,4.10
2019-03-30T03:40:43.551Z,4.00
2019-03-30T03:43:25.377Z,4.00
2019-03-30T03:45:55.576Z,4.00
2019-03-30T03:48:32.113Z,4.00
2019-03-30T03:51:25.007Z,4.00
2019-03-30T03:53:50.593Z,3.90
2019-03-30T03:56:31.144Z,3.90
2019-03-30T03:59:02.942Z,3.90
2019-03-30T04:01:35.424Z,3.90
2019-03-30T04:04:14.557Z,3.80
2019-03-30T04:06:47.129Z,3.80
2019-03-30T04:09:20.665Z,3.80
2019-03-30T04:11:53.092Z,3.80
2019-03-30T04:14:32.521Z,3.80
2019-03-30T04:17:03.193Z,3.80
2019-03-30T04:19:35.081Z,3.80
2019-03-30T04:22:13.514Z,3.80
2019-03-30T04:24:53.324Z,3.70
2019-03-30T04:27:34.491Z,3.70
2019-03-30T04:30:12.311Z,3.70
2019-03-30T04:32:42.511Z,3.60
2019-03-30T04:35:23.319Z,3.60
2019-03-30T04:37:56.796Z,3.60
2019-03-30T04:43:15.539Z,3.60
2019-03-30T04:45:58.623Z,3.60
2019-03-30T04:52:06.879Z,3.60
2019-03-30T04:54:37.204Z,3.60
2019-03-30T04:57:16.357Z,3.60
2019-03-30T04:59:55.483Z,3.60
2019-03-30T05:02:27.242Z,3.60
2019-03-30T05:04:57.577Z,3.60
2019-03-30T05:07:33.660Z,3.60
2019-03-30T05:10:24.757Z,3.50
2019-03-30T05:13:09.597Z,3.60
2019-03-30T05:15:40.207Z,3.60
2019-03-30T05:18:19.900Z,3.60
2019-03-30T05:21:01.502Z,3.60
2019-03-30T05:23:28.556Z,3.60
2019-03-30T05:26:00.480Z,3.60
2019-03-30T05:28:33.555Z,3.70
2019-03-30T05:31:05.065Z,3.80
2019-03-30T05:33:50.421Z,3.80
2019-03-30T05:36:20.788Z,3.90
2019-03-30T05:38:55.280Z,3.90
2019-03-30T05:41:31.606Z,4.00
2019-03-30T05:44:13.768Z,4.10
2019-03-30T05:46:55.616Z,4.10
2019-03-30T05:49:24.317Z,4.20
2019-03-30T05:52:04.206Z,4.30
2019-03-30T05:54:44.190Z,4.40
2019-03-30T05:57:17.653Z,4.40
2019-03-30T05:59:56.712Z,4.50
2019-03-30T06:02:28.361Z,4.50
2019-03-30T06:05:11.731Z,4.60
2019-03-30T06:07:42.050Z,4.70
2019-03-30T06:10:13.856Z,4.80
2019-03-30T06:12:44.191Z,4.90
2019-03-30T06:15:16.285Z,4.90
2019-03-30T06:18:03.750Z,5.00
2019-03-30T06:23:53.088Z,5.20
2019-03-30T06:25:59.549Z,5.30
2019-03-30T06:28:29.834Z,5.40
2019-03-30T06:31:00.203Z,5.50
2019-03-30T06:33:30.476Z,5.50
2019-03-30T06:36:00.790Z,5.70
2019-03-30T06:38:31.045Z,5.80
2019-03-30T06:41:01.341Z,5.80
2019-03-30T06:43:32.122Z,6.00
2019-03-30T06:46:02.444Z,6.00
2019-03-30T06:48:35.854Z,6.10
2019-03-30T06:51:05.298Z,6.20
2019-03-30T06:53:35.451Z,6.30
2019-03-30T06:56:05.747Z,6.40
2019-03-30T06:58:36.020Z,6.60
2019-03-30T07:01:08.954Z,6.60
2019-03-30T07:03:39.566Z,6.70
2019-03-30T07:06:11.580Z,6.80
2019-03-30T07:08:46.171Z,6.90
2019-03-30T07:11:21.366Z,7.00
2019-03-30T07:13:50.053Z,7.10
2019-03-30T07:16:20.226Z,7.20
2019-03-30T07:18:52.457Z,7.30
2019-03-30T07:21:22.764Z,7.40
2019-03-30T07:23:53.733Z,7.40
2019-03-30T07:26:24.024Z,7.60
2019-03-30T07:28:54.850Z,7.60
2019-03-30T07:31:25.210Z,7.80
2019-03-30T07:33:55.378Z,7.90
2019-03-30T07:36:25.632Z,8.00
2019-03-30T07:38:56.463Z,8.10
2019-03-30T07:41:26.763Z,8.20
2019-03-30T07:43:57.091Z,8.30
2019-03-30T07:46:27.279Z,8.50
2019-03-30T07:48:58.075Z,8.60
2019-03-30T07:51:28.421Z,8.70
2019-03-30T07:53:58.615Z,8.90
2019-03-30T07:56:29.253Z,9.00
2019-03-30T07:58:59.545Z,9.10
2019-03-30T08:01:29.898Z,9.20
2019-03-30T08:04:00.197Z,9.30
2019-03-30T08:06:30.635Z,9.40
2019-03-30T08:09:00.943Z,9.60
2019-03-30T08:11:31.655Z,9.70
2019-03-30T08:14:02.351Z,9.80
2019-03-30T08:16:32.645Z,10.00
2019-03-30T08:19:02.975Z,10.10
2019-03-30T08:21:33.327Z,10.30
2019-03-30T08:24:03.646Z,10.40
2019-03-30T08:26:35.726Z,10.60
2019-03-30T08:29:06.170Z,10.70
2019-03-30T08:31:37.351Z,10.90
2019-03-30T08:34:07.576Z,11.00
2019-03-30T08:36:39.873Z,11.10
2019-03-30T08:39:10.350Z,11.20
2019-03-30T08:41:40.652Z,11.30
2019-03-30T08:44:10.912Z,11.40
2019-03-30T08:46:41.192Z,11.50
2019-03-30T08:49:11.565Z,11.70
2019-03-30T08:51:41.756Z,11.80
2019-03-30T08:54:12.759Z,11.90
2019-03-30T08:56:43.017Z,12.00
2019-03-30T08:59:13.633Z,12.10
2019-03-30T09:01:43.912Z,12.30
2019-03-30T09:04:14.264Z,12.40
2019-03-30T09:06:44.546Z,12.50
2019-03-30T09:09:14.843Z,12.60
2019-03-30T09:11:45.449Z,12.70
2019-03-30T09:14:15.765Z,12.80
2019-03-30T09:16:47.741Z,12.90
2019-03-30T09:19:18.568Z,13.00
2019-03-30T09:21:48.781Z,13.10
2019-03-30T09:24:19.616Z,13.20
2019-03-30T09:26:49.822Z,13.30
2019-03-30T09:29:20.225Z,13.30
2019-03-30T09:31:50.403Z,13.40
2019-03-30T09:34:20.633Z,13.50
2019-03-30T09:36:50.983Z,13.60
2019-03-30T09:39:21.403Z,13.60
2019-03-30T09:41:52.224Z,13.70
2019-03-30T09:44:22.562Z,13.80
2019-03-30T09:46:52.752Z,13.90
2019-03-30T09:49:23.454Z,13.90
2019-03-30T09:51:53.750Z,13.90
2019-03-30T09:54:24.332Z,14.00
2019-03-30T09:56:55.294Z,14.00
2019-03-30T09:59:25.568Z,14.00
2019-03-30T10:01:56.562Z,14.10
2019-03-30T10:04:26.875Z,14.20
2019-03-30T10:06:57.768Z,14.20
2019-03-30T10:09:28.087Z,14.20
2019-03-30T10:11:58.362Z,14.30
2019-03-30T10:14:28.719Z,14.40
2019-03-30T10:16:58.976Z,14.40
2019-03-30T10:19:29.288Z,14.50
2019-03-30T10:22:00.487Z,14.60
2019-03-30T10:24:38.459Z,14.60
2019-03-30T10:27:05.517Z,14.70
2019-03-30T10:29:35.804Z,14.70
2019-03-30T10:32:06.117Z,14.80
2019-03-30T10:34:39.398Z,14.80
2019-03-30T10:37:08.862Z,15.00
2019-03-30T10:39:39.614Z,15.00
2019-03-30T10:42:09.889Z,15.10
2019-03-30T10:44:40.187Z,15.20
2019-03-30T10:47:11.231Z,15.30
2019-03-30T10:49:41.591Z,15.30
2019-03-30T10:52:11.823Z,15.40
2019-03-30T10:54:52.554Z,15.40
2019-03-30T10:57:15.040Z,15.50
2019-03-30T10:59:50.118Z,15.50
2019-03-30T11:02:20.607Z,15.60
2019-03-30T11:04:50.841Z,15.60
2019-03-30T11:07:23.818Z,15.70
2019-03-30T11:09:54.104Z,15.80
2019-03-30T11:12:24.394Z,15.80
2019-03-30T11:14:54.704Z,15.90
2019-03-30T11:17:25.015Z,15.90
2019-03-30T11:19:56.083Z,16.00
2019-03-30T11:22:26.471Z,16.10
2019-03-30T11:25:07.522Z,16.10
2019-03-30T11:27:31.263Z,16.20
2019-03-30T11:30:01.663Z,16.20
2019-03-30T11:32:31.955Z,16.20
2019-03-30T11:35:04.946Z,16.20
2019-03-30T11:37:35.194Z,16.30
2019-03-30T11:40:08.655Z,16.30
2019-03-30T11:42:41.977Z,16.40
2019-03-30T11:45:12.390Z,16.50
2019-03-30T11:47:42.679Z,16.50
2019-03-30T11:50:13.541Z,16.70
2019-03-30T11:52:43.865Z,16.70
2019-03-30T11:55:21.667Z,16.80
2019-03-30T11:57:46.611Z,16.90
2019-03-30T12:00:16.797Z,17.00
2019-03-30T12:02:47.135Z,17.10
2019-03-30T12:05:18.023Z,17.10
2019-03-30T12:07:50.027Z,17.10
2019-03-30T12:10:21.106Z,17.10
2019-03-30T12:12:51.482Z,17.20
2019-03-30T12:15:22.733Z,17.20
2019-03-30T12:17:53.420Z,17.30
2019-03-30T12:20:23.830Z,17.30
2019-03-30T12:22:54.167Z,17.40
2019-03-30T12:25:34.811Z,17.40
2019-03-30T12:27:56.396Z,17.40
2019-03-30T12:30:26.786Z,17.40
2019-03-30T12:32:57.091Z,17.50
2019-03-30T12:35:27.384Z,17.50
2019-03-30T12:37:58.609Z,17.60
2019-03-30T12:40:28.925Z,17.60
2019-03-30T12:42:59.232Z,17.70
2019-03-30T12:45:29.538Z,17.80
2019-03-30T12:47:59.847Z,17.90
2019-03-30T12:50:30.163Z,17.90
2019-03-30T12:53:03.627Z,17.90
2019-03-30T12:55:33.933Z,17.90
2019-03-30T12:58:04.120Z,17.90
2019-03-30T13:00:34.762Z,17.90
2019-03-30T13:03:05.057Z,17.90
2019-03-30T13:05:35.356Z,17.90
2019-03-30T13:08:06.208Z,17.90
2019-03-30T13:10:36.532Z,18.10
2019-03-30T13:13:07.336Z,18.10
2019-03-30T13:15:37.648Z,18.20
2019-03-30T13:18:09.458Z,18.20
2019-03-30T13:20:40.264Z,18.20
2019-03-30T13:23:10.530Z,18.20
2019-03-30T13:25:41.204Z,18.20
2019-03-30T13:28:11.497Z,18.20
2019-03-30T13:30:41.687Z,18.30
2019-03-30T13:33:12.673Z,18.30
2019-03-30T13:35:42.975Z,18.40
2019-03-30T13:38:13.249Z,18.40
2019-03-30T13:40:44.165Z,18.40
2019-03-30T13:43:14.410Z,18.50
2019-03-30T13:45:44.796Z,18.50
2019-03-30T13:48:15.123Z,18.60
2019-03-30T13:50:45.547Z,18.60
2019-03-30T13:53:15.852Z,18.60
2019-03-30T13:55:46.211Z,18.60
2019-03-30T13:58:16.543Z,18.60
2019-03-30T14:00:47.049Z,18.60
2019-03-30T14:03:18.871Z,18.60
2019-03-30T14:05:49.244Z,18.60
2019-03-30T14:08:19.539Z,18.70
2019-03-30T14:10:50.317Z,18.70
2019-03-30T14:13:21.629Z,18.70
2019-03-30T14:15:52.644Z,18.80
2019-03-30T14:18:22.960Z,18.70
2019-03-30T14:20:53.185Z,18.70
2019-03-30T14:23:23.953Z,18.80
2019-03-30T14:25:54.243Z,18.70
2019-03-30T14:28:24.579Z,18.70
2019-03-30T14:30:54.866Z,18.70
2019-03-30T14:33:25.152Z,18.80
2019-03-30T14:35:55.991Z,18.80
2019-03-30T14:38:26.326Z,18.90
2019-03-30T14:40:56.624Z,18.90
2019-03-30T14:43:26.966Z,18.90
2019-03-30T14:45:57.262Z,18.90
2019-03-30T14:48:28.602Z,19.00
2019-03-30T14:50:58.933Z,19.00
2019-03-30T14:53:29.145Z,19.00
2019-03-30T14:55:59.472Z,19.00
2019-03-30T14:58:29.827Z,19.00
2019-03-30T15:01:03.089Z,19.00
2019-03-30T15:03:32.254Z,19.10
2019-03-30T15:06:02.695Z,19.10
2019-03-30T15:08:33.196Z,19.10
2019-03-30T15:11:04.623Z,19.10
2019-03-30T15:13:34.849Z,19.20
2019-03-30T15:16:05.683Z,19.20
2019-03-30T15:18:36.025Z,19.20
2019-03-30T15:21:08.491Z,19.20
2019-03-30T15:23:38.501Z,19.20
2019-03-30T15:26:08.694Z,19.10
2019-03-30T15:28:42.557Z,19.10
2019-03-30T15:31:11.058Z,19.10
2019-03-30T15:33:41.722Z,19.10
2019-03-30T15:36:11.936Z,19.00
2019-03-30T15:38:48.519Z,19.00
2019-03-30T15:41:18.845Z,19.00
2019-03-30T15:43:51.958Z,19.00
2019-03-30T15:46:21.141Z,19.00
2019-03-30T15:48:51.439Z,19.00
2019-03-30T15:51:21.711Z,18.90
2019-03-30T15:53:52.153Z,18.90
2019-03-30T15:56:22.619Z,18.80
2019-03-30T15:58:52.993Z,18.80
2019-03-30T16:01:23.554Z,18.80
2019-03-30T16:03:54.083Z,18.80
2019-03-30T16:06:24.599Z,18.80
2019-03-30T16:08:54.951Z,18.80
2019-03-30T16:11:25.250Z,18.80
2019-03-30T16:13:55.547Z,18.80
2019-03-30T16:16:26.254Z,18.80
2019-03-30T16:18:56.569Z,18.80
2019-03-30T16:21:27.059Z,18.70
2019-03-30T16:23:57.331Z,18.70
2019-03-30T16:26:41.441Z,18.80
2019-03-30T16:28:59.562Z,18.80
2019-03-30T16:31:30.386Z,18.90
2019-03-30T16:34:00.763Z,18.90
2019-03-30T16:36:31.057Z,19.00
2019-03-30T16:39:01.354Z,19.00
2019-03-30T16:41:33.171Z,19.20
2019-03-30T16:44:03.440Z,19.20
2019-03-30T16:46:33.828Z,19.50
2019-03-30T16:49:04.332Z,19.70
2019-03-30T16:51:34.655Z,20.00
2019-03-30T16:54:05.230Z,20.00
2019-03-30T16:56:36.012Z,20.00
2019-03-30T16:59:06.307Z,20.00
2019-03-30T17:01:36.636Z,19.80
2019-03-30T17:04:07.999Z,19.60
2019-03-30T17:06:38.400Z,19.40
2019-03-30T17:09:08.799Z,19.00
2019-03-30T17:11:39.171Z,18.70
2019-03-30T17:14:09.435Z,18.40
2019-03-30T17:16:40.192Z,18.20
2019-03-30T17:19:10.531Z,17.90
2019-03-30T17:21:40.760Z,17.70
2019-03-30T17:24:11.057Z,17.50
2019-03-30T17:26:42.203Z,17.20
2019-03-30T17:29:13.571Z,17.00
2019-03-30T17:31:45.031Z,16.70
2019-03-30T17:34:16.420Z,16.50
2019-03-30T17:36:46.695Z,16.40
2019-03-30T17:39:17.256Z,16.20
2019-03-30T17:41:47.524Z,16.00
2019-03-30T17:44:17.849Z,15.90
2019-03-30T17:46:48.113Z,15.80
2019-03-30T17:49:18.385Z,15.70
2019-03-30T17:51:48.673Z,15.50
2019-03-30T17:54:18.977Z,15.40
2019-03-30T17:56:49.647Z,15.30
2019-03-30T17:59:23.482Z,15.20
2019-03-30T18:01:51.860Z,15.20
2019-03-30T18:04:22.170Z,15.10
2019-03-30T18:06:52.744Z,15.00
2019-03-30T18:09:23.049Z,14.90
2019-03-30T18:11:53.322Z,14.80
2019-03-30T18:14:23.627Z,14.70
2019-03-30T18:16:53.825Z,14.60
2019-03-30T18:19:24.165Z,14.40
2019-03-30T18:21:54.392Z,14.30
2019-03-30T18:24:24.662Z,14.20
2019-03-30T18:26:54.960Z,14.10
2019-03-30T18:29:25.253Z,13.90
2019-03-30T18:31:55.578Z,13.80
2019-03-30T18:34:26.528Z,13.80
2019-03-30T18:36:57.096Z,13.70
2019-03-30T18:39:27.666Z,13.60
2019-03-30T18:41:57.958Z,13.60
2019-03-30T18:44:28.970Z,13.50
2019-03-30T18:46:59.267Z,13.50
2019-03-30T18:49:29.524Z,13.40
2019-03-30T18:52:00.137Z,13.40
2019-03-30T18:54:31.279Z,13.30
2019-03-30T18:57:01.575Z,13.30
2019-03-30T18:59:31.847Z,13.20
2019-03-30T19:02:02.092Z,13.20
2019-03-30T19:04:32.361Z,13.10
2019-03-30T19:07:02.595Z,13.10
2019-03-30T19:09:32.965Z,13.10
2019-03-30T19:12:03.795Z,13.00
2019-03-30T19:14:34.243Z,13.00
2019-03-30T19:17:04.653Z,12.90
2019-03-30T19:19:34.939Z,12.90
2019-03-30T19:22:05.271Z,12.90
2019-03-30T19:24:35.539Z,12.80
2019-03-30T19:27:05.871Z,12.80
2019-03-30T19:29:36.143Z,12.70
2019-03-30T19:32:06.457Z,12.70
2019-03-30T19:34:36.738Z,12.60
2019-03-30T19:37:07.091Z,12.60
2019-03-30T19:39:37.265Z,12.50
2019-03-30T19:42:07.527Z,12.40
2019-03-30T19:44:37.823Z,12.40
2019-03-30T19:47:08.333Z,12.30
2019-03-30T19:49:38.610Z,12.30
2019-03-30T19:52:09.024Z,12.20
2019-03-30T19:54:39.219Z,12.20
2019-03-30T19:57:09.651Z,12.10
2019-03-30T19:59:39.894Z,12.10
2019-03-30T20:02:10.683Z,12.00
2019-03-30T20:04:40.960Z,12.00
2019-03-30T20:07:12.284Z,11.90
2019-03-30T20:09:42.555Z,11.90
2019-03-30T20:12:13.024Z,11.80
2019-03-30T20:14:47.732Z,11.80
2019-03-30T20:17:18.073Z,11.80
2019-03-30T20:19:48.360Z,11.70
2019-03-30T20:22:18.682Z,11.70
2019-03-30T20:24:49.118Z,11.70
2019-03-30T20:27:19.469Z,11.70
2019-03-30T20:29:51.025Z,11.70
2019-03-30T20:32:21.351Z,11.70
2019-03-30T20:34:54.403Z,11.70
2019-03-30T20:37:28.591Z,11.70
2019-03-30T20:39:59.150Z,11.70
2019-03-30T20:42:30.910Z,11.70
2019-03-30T20:45:01.187Z,11.60
2019-03-30T20:47:31.670Z,11.60
2019-03-30T20:50:04.007Z,11.50
2019-03-30T20:52:34.413Z,11.50
2019-03-30T20:55:06.949Z,11.50
2019-03-30T20:57:37.955Z,11.40
2019-03-30T21:00:10.522Z,11.40
2019-03-30T21:02:40.861Z,11.30
2019-03-30T21:05:11.379Z,11.20
2019-03-30T21:07:41.979Z,11.20
2019-03-30T21:10:12.650Z,11.10
2019-03-30T21:12:43.094Z,11.10
2019-03-30T21:15:15.099Z,11.10
2019-03-30T21:17:46.891Z,11.00
2019-03-30T21:20:17.324Z,11.00
2019-03-30T21:22:49.275Z,11.00
2019-03-30T21:25:19.680Z,10.90
2019-03-30T21:27:50.149Z,10.90
2019-03-30T21:30:20.420Z,10.90
2019-03-30T21:33:00.288Z,10.90
2019-03-30T21:35:30.650Z,10.80
2019-03-30T21:38:02.151Z,10.80
2019-03-30T21:40:32.455Z,10.80
2019-03-30T21:43:02.856Z,10.80
2019-03-30T21:45:33.178Z,10.70
2019-03-30T21:48:03.456Z,10.70
2019-03-30T21:50:33.912Z,10.70
2019-03-30T21:53:04.316Z,10.60
2019-03-30T21:55:34.810Z,10.60
2019-03-30T21:58:05.092Z,10.60
2019-03-30T22:00:37.692Z,10.60
2019-03-30T22:03:08.153Z,10.50
2019-03-30T22:05:38.521Z,10.50
2019-03-30T22:08:10.021Z,10.50
2019-03-30T22:10:40.585Z,10.50
2019-03-30T22:13:10.941Z,10.40
2019-03-30T22:15:41.556Z,10.40
2019-03-30T22:18:20.767Z,10.40
2019-03-30T22:20:54.089Z,10.30
2019-03-30T22:23:24.398Z,10.30
2019-03-30T22:25:54.783Z,10.30
2019-03-30T22:28:25.063Z,10.20
2019-03-30T22:30:55.499Z,10.10
2019-03-30T22:33:25.784Z,10.00
2019-03-30T22:35:56.153Z,9.90
2019-03-30T22:38:26.421Z,9.90
2019-03-30T22:40:56.775Z,9.80
2019-03-30T22:43:27.074Z,9.80
2019-03-30T22:45:57.431Z,9.70
2019-03-30T22:48:27.683Z,9.70
2019-03-30T22:50:58.199Z,9.70
2019-03-30T22:53:38.899Z,9.60
2019-03-30T22:56:09.264Z,9.60
2019-03-30T22:58:39.530Z,9.50
2019-03-30T23:01:12.751Z,9.40
2019-03-30T23:03:45.171Z,9.40
2019-03-30T23:06:15.523Z,9.30
2019-03-30T23:08:45.911Z,9.20
2019-03-30T23:11:16.270Z,9.20
2019-03-30T23:13:46.555Z,9.20
2019-03-30T23:16:16.968Z,9.10
2019-03-30T23:18:47.244Z,9.10
2019-03-30T23:21:17.637Z,9.00
2019-03-30T23:23:47.927Z,9.00
2019-03-30T23:26:22.440Z,8.90
2019-03-30T23:28:52.732Z,8.90
2019-03-30T23:31:29.820Z,8.90
2019-03-30T23:34:01.418Z,8.80
2019-03-30T23:36:31.859Z,8.80
2019-03-30T23:39:08.952Z,8.70
2019-03-30T23:41:39.320Z,8.70
2019-03-30T23:44:09.621Z,8.70
2019-03-30T23:46:39.924Z,8.70
2019-03-30T23:49:10.244Z,8.70
2019-03-30T23:51:40.521Z,8.70
2019-03-30T23:54:15.786Z,8.80
2019-03-30T23:56:46.057Z,8.80
2019-03-30T23:59:16.395Z,8.80
